sensor_id;sensor_type;location;lat;lon;timestamp;pressure;altitude;pressure_sealevel;temperature;humidity
929;BME280;451;47.988;7.842;2023-04-04T00:02:31;99088.84;;;2.26;93.58
929;BME280;451;47.988;7.842;2023-04-04T00:11:34;99087.75;;;1.90;94.73
929;BME280;451;47.988;7.842;2023-04-04T00:20:38;99043.50;;;1.93;93.62
929;BME280;451;47.988;7.842;2023-04-04T00:29:41;99039.31;;;1.66;93.84
929;BME280;451;47.988;7.842;2023-04-04T00:38:46;99059.59;;;1.98;88.54
929;BME280;451;47.988;7.842;2023-04-04T00:47:49;98966.78;;;1.26;87.68
929;BME280;451;47.988;7.842;2023-04-04T00:56:54;99011.47;;;1.42;92.18
929;BME280;451;47.988;7.842;2023-04-04T01:05:57;99066.25;;;2.28;90.29
929;BME280;451;47.988;7.842;2023-04-04T01:15:03;99023.97;;;1.75;83.05
929;BME280;451;47.988;7.842;2023-04-04T01:24:07;98907.63;;;1.20;74.79
929;BME280;451;47.988;7.842;2023-04-04T01:33:28;99057.19;;;2.71;70.72
929;BME280;451;47.988;7.842;2023-04-04T01:42:35;98992.72;;;2.65;69.06
929;BME280;451;47.988;7.842;2023-04-04T01:51:40;99038.16;;;2.83;65.26
929;BME280;451;47.988;7.842;2023-04-04T02:00:43;98914.59;;;2.08;65.34
929;BME280;451;47.988;7.842;2023-04-04T02:09:48;99031.72;;;2.76;64.78
929;BME280;451;47.988;7.842;2023-04-04T02:18:51;98998.34;;;2.59;64.30
929;BME280;451;47.988;7.842;2023-04-04T02:27:56;99035.69;;;2.69;65.01
929;BME280;451;47.988;7.842;2023-04-04T02:36:59;99023.66;;;2.68;64.29
929;BME280;451;47.988;7.842;2023-04-04T02:46:05;99020.44;;;2.65;63.72
929;BME280;451;47.988;7.842;2023-04-04T02:55:08;99020.94;;;2.70;64.03
929;BME280;451;47.988;7.842;2023-04-04T03:04:17;98975.16;;;2.20;65.28
929;BME280;451;47.988;7.842;2023-04-04T03:13:21;98988.03;;;2.09;63.84
929;BME280;451;47.988;7.842;2023-04-04T03:22:26;99033.97;;;2.32;64.14
929;BME280;451;47.988;7.842;2023-04-04T03:31:30;98987.41;;;1.80;70.25
929;BME280;451;47.988;7.842;2023-04-04T03:40:34;99014.09;;;1.55;73.73
929;BME280;451;47.988;7.842;2023-04-04T03:49:42;99019.88;;;1.19;78.22
929;BME280;451;47.988;7.842;2023-04-04T03:58:48;98996.75;;;1.03;79.10
929;BME280;451;47.988;7.842;2023-04-04T04:07:54;98935.69;;;0.60;79.06
929;BME280;451;47.988;7.842;2023-04-04T04:16:59;99032.91;;;1.44;71.30
929;BME280;451;47.988;7.842;2023-04-04T04:26:02;99035.94;;;1.51;73.10
929;BME280;451;47.988;7.842;2023-04-04T04:35:07;98922.91;;;0.71;73.83
929;BME280;451;47.988;7.842;2023-04-04T04:44:12;98942.19;;;0.79;74.66
929;BME280;451;47.988;7.842;2023-04-04T04:53:18;99057.13;;;1.70;75.91
929;BME280;451;47.988;7.842;2023-04-04T05:02:22;99061.88;;;1.24;76.72
929;BME280;451;47.988;7.842;2023-04-04T05:11:27;98991.22;;;0.68;77.48
929;BME280;451;47.988;7.842;2023-04-04T05:20:30;99022.81;;;1.00;79.72
929;BME280;451;47.988;7.842;2023-04-04T05:29:37;99087.69;;;1.11;77.43
929;BME280;451;47.988;7.842;2023-04-04T05:38:40;99064.22;;;1.00;76.92
929;BME280;451;47.988;7.842;2023-04-04T05:47:46;99100.06;;;1.06;76.34
929;BME280;451;47.988;7.842;2023-04-04T05:56:49;99094.97;;;1.46;72.82
929;BME280;451;47.988;7.842;2023-04-04T06:06:11;99016.97;;;1.11;73.73
929;BME280;451;47.988;7.842;2023-04-04T06:15:15;99095.25;;;1.55;73.70
929;BME280;451;47.988;7.842;2023-04-04T06:24:20;99100.50;;;1.54;72.51
929;BME280;451;47.988;7.842;2023-04-04T06:33:23;99043.19;;;1.46;71.14
929;BME280;451;47.988;7.842;2023-04-04T06:42:28;99090.72;;;2.24;68.68
929;BME280;451;47.988;7.842;2023-04-04T06:51:39;98945.56;;;1.34;68.54
929;BME280;451;47.988;7.842;2023-04-04T07:00:44;99068.44;;;2.96;65.37
929;BME280;451;47.988;7.842;2023-04-04T07:09:47;99064.47;;;3.03;61.42
929;BME280;451;47.988;7.842;2023-04-04T07:18:51;98995.88;;;3.18;59.75
929;BME280;451;47.988;7.842;2023-04-04T07:27:54;99069.38;;;3.79;59.00
929;BME280;451;47.988;7.842;2023-04-04T07:36:59;99068.72;;;3.99;59.48
929;BME280;451;47.988;7.842;2023-04-04T07:46:02;99037.91;;;4.17;59.70
929;BME280;451;47.988;7.842;2023-04-04T07:55:07;99015.25;;;3.84;60.27
929;BME280;451;47.988;7.842;2023-04-04T08:04:10;99056.03;;;4.40;60.75
929;BME280;451;47.988;7.842;2023-04-04T08:13:14;99057.69;;;4.53;58.95
929;BME280;451;47.988;7.842;2023-04-04T08:22:17;99048.06;;;5.09;58.15
929;BME280;451;47.988;7.842;2023-04-04T08:31:22;98918.56;;;4.34;55.31
929;BME280;451;47.988;7.842;2023-04-04T08:40:25;99048.00;;;5.42;53.17
929;BME280;451;47.988;7.842;2023-04-04T08:49:34;99053.84;;;5.98;52.41
929;BME280;451;47.988;7.842;2023-04-04T08:58:39;99020.63;;;5.68;52.06
929;BME280;451;47.988;7.842;2023-04-04T09:07:44;99038.41;;;7.07;50.21
929;BME280;451;47.988;7.842;2023-04-04T09:16:48;98963.97;;;6.12;49.49
929;BME280;451;47.988;7.842;2023-04-04T09:25:53;99023.13;;;7.03;46.42
929;BME280;451;47.988;7.842;2023-04-04T09:34:56;99013.97;;;7.56;46.83
929;BME280;451;47.988;7.842;2023-04-04T09:44:01;99029.31;;;8.27;45.73
929;BME280;451;47.988;7.842;2023-04-04T09:53:04;99033.66;;;7.89;46.26
929;BME280;451;47.988;7.842;2023-04-04T10:02:10;99004.47;;;7.55;45.33
929;BME280;451;47.988;7.842;2023-04-04T10:11:27;98943.06;;;7.21;44.56
929;BME280;451;47.988;7.842;2023-04-04T10:20:32;99019.19;;;7.95;45.43
929;BME280;451;47.988;7.842;2023-04-04T10:29:35;99022.84;;;8.40;43.65
929;BME280;451;47.988;7.842;2023-04-04T10:38:42;99005.69;;;8.56;44.05
929;BME280;451;47.988;7.842;2023-04-04T10:47:46;98921.81;;;7.82;45.88
929;BME280;451;47.988;7.842;2023-04-04T10:56:51;98985.81;;;9.25;44.80
929;BME280;451;47.988;7.842;2023-04-04T11:05:54;98989.84;;;9.02;42.29
929;BME280;451;47.988;7.842;2023-04-04T11:15:08;98891.31;;;8.82;43.15
929;BME280;451;47.988;7.842;2023-04-04T11:24:12;98962.59;;;9.66;43.08
929;BME280;451;47.988;7.842;2023-04-04T11:33:26;98915.41;;;9.30;43.28
929;BME280;451;47.988;7.842;2023-04-04T11:42:33;98945.91;;;10.19;42.43
929;BME280;451;47.988;7.842;2023-04-04T11:51:37;98949.09;;;10.12;43.84
929;BME280;451;47.988;7.842;2023-04-04T12:00:41;98932.56;;;10.96;39.59
929;BME280;451;47.988;7.842;2023-04-04T12:09:46;98891.91;;;10.24;39.68
929;BME280;451;47.988;7.842;2023-04-04T12:18:50;98938.41;;;10.06;39.43
929;BME280;451;47.988;7.842;2023-04-04T12:27:54;98847.84;;;10.18;38.53
929;BME280;451;47.988;7.842;2023-04-04T12:36:59;98936.16;;;10.79;38.94
929;BME280;451;47.988;7.842;2023-04-04T12:46:06;98913.06;;;11.39;38.03
929;BME280;451;47.988;7.842;2023-04-04T12:55:10;98899.63;;;10.76;39.10
929;BME280;451;47.988;7.842;2023-04-04T13:04:15;98900.81;;;10.89;38.70
929;BME280;451;47.988;7.842;2023-04-04T13:13:33;98894.31;;;11.34;38.96
929;BME280;451;47.988;7.842;2023-04-04T13:22:38;98892.97;;;11.14;38.89
929;BME280;451;47.988;7.842;2023-04-04T13:31:42;98883.44;;;11.29;41.84
929;BME280;451;47.988;7.842;2023-04-04T13:40:46;98871.44;;;11.35;39.71
929;BME280;451;47.988;7.842;2023-04-04T13:49:49;98750.22;;;10.39;40.05
929;BME280;451;47.988;7.842;2023-04-04T13:58:54;98860.25;;;10.92;41.07
929;BME280;451;47.988;7.842;2023-04-04T14:07:57;98822.09;;;10.22;41.02
929;BME280;451;47.988;7.842;2023-04-04T14:17:01;98859.41;;;10.83;41.71
929;BME280;451;47.988;7.842;2023-04-04T14:26:04;98874.88;;;10.86;40.10
929;BME280;451;47.988;7.842;2023-04-04T14:35:09;98824.84;;;11.43;39.77
929;BME280;451;47.988;7.842;2023-04-04T14:44:14;98835.41;;;10.86;40.23
929;BME280;451;47.988;7.842;2023-04-04T14:53:18;98795.91;;;10.12;40.25
929;BME280;451;47.988;7.842;2023-04-04T15:02:22;98853.19;;;11.17;41.22
929;BME280;451;47.988;7.842;2023-04-04T15:11:26;98861.03;;;10.84;39.69
929;BME280;451;47.988;7.842;2023-04-04T15:20:29;98800.72;;;10.67;40.30
929;BME280;451;47.988;7.842;2023-04-04T15:29:33;98757.47;;;10.69;39.56
929;BME280;451;47.988;7.842;2023-04-04T15:38:36;98831.13;;;11.02;40.38
929;BME280;451;47.988;7.842;2023-04-04T15:47:41;98797.06;;;10.51;40.58
929;BME280;451;47.988;7.842;2023-04-04T15:56:45;98846.22;;;10.75;40.14
929;BME280;451;47.988;7.842;2023-04-04T16:05:50;98825.59;;;10.38;40.30
929;BME280;451;47.988;7.842;2023-04-04T16:14:54;98786.88;;;9.98;40.43
929;BME280;451;47.988;7.842;2023-04-04T16:23:58;98850.16;;;10.55;41.24
929;BME280;451;47.988;7.842;2023-04-04T16:33:04;98856.78;;;9.99;41.25
929;BME280;451;47.988;7.842;2023-04-04T16:42:08;98846.41;;;9.90;42.37
929;BME280;451;47.988;7.842;2023-04-04T16:51:12;98829.81;;;9.89;42.38
929;BME280;451;47.988;7.842;2023-04-04T17:00:17;98812.34;;;9.72;43.29
929;BME280;451;47.988;7.842;2023-04-04T17:09:20;98849.84;;;9.39;43.05
929;BME280;451;47.988;7.842;2023-04-04T17:18:24;98775.59;;;8.95;42.83
929;BME280;451;47.988;7.842;2023-04-04T17:27:27;98844.75;;;9.63;49.44
929;BME280;451;47.988;7.842;2023-04-04T17:36:32;98848.63;;;9.51;44.33
929;BME280;451;47.988;7.842;2023-04-04T17:45:35;98849.81;;;9.13;43.64
929;BME280;451;47.988;7.842;2023-04-04T17:54:41;98859.66;;;8.93;44.62
929;BME280;451;47.988;7.842;2023-04-04T18:03:44;98857.69;;;8.77;43.95
929;BME280;451;47.988;7.842;2023-04-04T18:12:49;98866.00;;;8.55;45.39
929;BME280;451;47.988;7.842;2023-04-04T18:21:52;98887.00;;;8.45;45.95
929;BME280;451;47.988;7.842;2023-04-04T18:31:01;98886.97;;;8.18;45.47
929;BME280;451;47.988;7.842;2023-04-04T18:40:06;98896.53;;;8.00;46.62
929;BME280;451;47.988;7.842;2023-04-04T18:49:12;98916.59;;;7.62;47.42
929;BME280;451;47.988;7.842;2023-04-04T18:58:15;98889.25;;;7.28;48.08
929;BME280;451;47.988;7.842;2023-04-04T19:07:21;98938.69;;;7.12;49.11
929;BME280;451;47.988;7.842;2023-04-04T19:16:28;98941.00;;;7.05;49.03
929;BME280;451;47.988;7.842;2023-04-04T19:25:32;98947.56;;;6.80;49.87
929;BME280;451;47.988;7.842;2023-04-04T19:34:35;98954.38;;;6.62;50.98
929;BME280;451;47.988;7.842;2023-04-04T19:43:41;98951.34;;;6.57;51.72
929;BME280;451;47.988;7.842;2023-04-04T19:52:46;98741.88;;;5.14;52.82
929;BME280;451;47.988;7.842;2023-04-04T20:01:51;98928.63;;;6.08;53.81
929;BME280;451;47.988;7.842;2023-04-04T20:10:54;98937.78;;;5.82;54.94
929;BME280;451;47.988;7.842;2023-04-04T20:20:00;98927.63;;;5.58;55.54
929;BME280;451;47.988;7.842;2023-04-04T20:29:04;98939.28;;;5.54;56.89
929;BME280;451;47.988;7.842;2023-04-04T20:38:19;98937.28;;;5.46;55.64
929;BME280;451;47.988;7.842;2023-04-04T20:47:38;98932.69;;;5.39;54.95
929;BME280;451;47.988;7.842;2023-04-04T20:56:47;98959.03;;;5.56;53.97
929;BME280;451;47.988;7.842;2023-04-04T21:05:58;98969.91;;;5.41;54.90
929;BME280;451;47.988;7.842;2023-04-04T21:15:08;98962.97;;;4.98;57.14
929;BME280;451;47.988;7.842;2023-04-04T21:24:12;98985.00;;;4.83;57.44
929;BME280;451;47.988;7.842;2023-04-04T21:33:17;98973.19;;;4.79;57.44
929;BME280;451;47.988;7.842;2023-04-04T21:42:22;98974.38;;;4.64;58.46
929;BME280;451;47.988;7.842;2023-04-04T21:51:27;98882.38;;;3.76;57.91
929;BME280;451;47.988;7.842;2023-04-04T22:00:30;98974.63;;;4.61;58.11
929;BME280;451;47.988;7.842;2023-04-04T22:09:34;98969.19;;;4.41;58.04
929;BME280;451;47.988;7.842;2023-04-04T22:18:39;98979.59;;;4.64;57.64
929;BME280;451;47.988;7.842;2023-04-04T22:27:46;98981.03;;;4.23;58.17
929;BME280;451;47.988;7.842;2023-04-04T22:36:50;98980.19;;;4.23;59.46
929;BME280;451;47.988;7.842;2023-04-04T22:45:56;98965.63;;;3.87;60.39
929;BME280;451;47.988;7.842;2023-04-04T22:54:59;98967.97;;;3.90;60.13
929;BME280;451;47.988;7.842;2023-04-04T23:04:04;98961.38;;;3.86;61.10
929;BME280;451;47.988;7.842;2023-04-04T23:13:07;98769.53;;;2.65;60.71
929;BME280;451;47.988;7.842;2023-04-04T23:22:11;98924.44;;;3.70;60.63
929;BME280;451;47.988;7.842;2023-04-04T23:31:14;98949.50;;;3.59;60.06
929;BME280;451;47.988;7.842;2023-04-04T23:40:19;98880.72;;;3.52;59.09
929;BME280;451;47.988;7.842;2023-04-04T23:49:22;98908.28;;;3.31;59.40
929;BME280;451;47.988;7.842;2023-04-04T23:58:26;98667.03;;;1.66;59.75
